Estación Meteorológica Peña el Pijo (Robertgarden) [ 11/16/19 01:55:09 CET ]

Fecha Hora Presion(HPa) Temp (°C) Humedad % Rocio (°C) Viento ( m/s) Direccion Lluvia 1Hora(mm) Lluvia 24H(mm) LLuvia Total(mm)
2019-Jun-02 01:01:40 1013.500 22.9 62 15.2         318.05
2019-Jun-02 02:01:53 1013.400 20.8 66 14.2         318.05
2019-Jun-02 03:03:13 1013.000 20.3 69 14.4         318.05
2019-Jun-02 04:01:51 1012.800 24.0 72 18.6         318.05
2019-Jun-02 05:01:20 1012.200 29.9 74 24.8         318.05
2019-Jun-02 06:01:40 1012.000 28.6 75 23.7         318.05
2019-Jun-02 07:01:44 1012.000 23.7 75 19.0         318.05
2019-Jun-02 08:01:49 1012.000 15.8 74 11.2         318.05
2019-Jun-02 09:02:01 1012.000 18.6 53 8.8         318.05
2019-Jun-02 10:02:11 1012.100 23.4 41 9.4         318.05
2019-Jun-02 11:01:54 1012.000 26.1 31 7.6         318.05
2019-Jun-02 12:01:50 1011.800 29.9 26 8.1         318.05
2019-Jun-02 13:01:42 1012.000 30.9 23 7.2         318.05
2019-Jun-02 14:01:54 1011.800 30.3 25 7.8         318.05
2019-Jun-02 15:01:36 1011.300 31.9 23 8.0         318.05
2019-Jun-02 16:01:57 1010.900 33.2 20 7.3 3.5 NNE     318.05
2019-Jun-02 17:01:51 1010.500 33.5 22 8.7         318.05
2019-Jun-02 18:01:49 1010.500 31.6 21 6.6         318.05
2019-Jun-02 19:01:53 1010.400 32.5 22 7.9         318.05
2019-Jun-02 20:01:53 1010.700 34.0 26 11.6         318.05
2019-Jun-02 21:01:50 1011.100 - 33 31.4         318.05
2019-Jun-02 22:01:53 1011.400 - - -         318.05
2019-Jun-02 23:01:48 1012.300 - - -         318.05

Temperatura Máxima:34°    Temperatura Mínima:
Presión Máxima:1013.500 Hpa    Presión Mínima:1010.400 Hpa


Volver